createdAt,value
2022-10-26T00:00:15.001Z,30.27
2022-10-26T00:02:44.959Z,3.63
2022-10-26T00:05:15.442Z,7.77
2022-10-26T00:07:50.355Z,11.50
2022-10-26T00:10:21.994Z,39.40
2022-10-26T00:12:53.466Z,14.43
2022-10-26T00:15:24.537Z,32.13
2022-10-26T00:17:54.545Z,2.70
2022-10-26T00:20:24.905Z,3.50
2022-10-26T00:22:57.395Z,19.53
2022-10-26T00:25:28.614Z,9.33
2022-10-26T00:28:00.220Z,10.87
2022-10-26T00:30:31.287Z,6.10
2022-10-26T00:33:01.244Z,2.80
2022-10-26T00:35:45.644Z,5.30
2022-10-26T00:38:19.273Z,2.10
2022-10-26T00:43:42.496Z,7.37
2022-10-26T00:46:16.301Z,0.50
2022-10-26T00:48:49.623Z,22.33
2022-10-26T00:51:27.236Z,23.53
2022-10-26T00:53:59.984Z,50.10
2022-10-26T00:56:31.270Z,1.07
2022-10-26T00:59:05.607Z,4.20
2022-10-26T01:01:39.102Z,3.60
2022-10-26T01:04:09.840Z,21.03
2022-10-26T01:06:41.167Z,34.13
2022-10-26T01:09:15.209Z,13.10
2022-10-26T01:11:45.153Z,28.30
2022-10-26T01:14:19.216Z,21.43
2022-10-26T01:20:39.355Z,4.83
2022-10-26T01:23:14.525Z,74.13
2022-10-26T01:26:20.408Z,137.40
2022-10-26T01:29:22.891Z,94.60
2022-10-26T01:32:01.319Z,19.40
2022-10-26T01:34:37.077Z,39.23
2022-10-26T01:37:11.944Z,45.40
2022-10-26T01:39:48.046Z,26.40
2022-10-26T01:42:20.536Z,32.17
2022-10-26T01:44:56.321Z,28.90
2022-10-26T01:47:32.189Z,3.27
2022-10-26T01:50:05.470Z,2.83
2022-10-26T01:52:35.809Z,3.93
2022-10-26T01:55:09.901Z,4.60
2022-10-26T01:57:41.346Z,4.13
2022-10-26T02:00:14.817Z,5.23
2022-10-26T02:03:04.508Z,3.37
2022-10-26T02:05:55.591Z,13.60
2022-10-26T02:08:38.687Z,13.50
2022-10-26T02:11:21.041Z,4.43
2022-10-26T02:13:58.595Z,7.80
2022-10-26T02:16:33.232Z,7.10
2022-10-26T02:19:15.747Z,3.10
2022-10-26T02:21:49.928Z,6.17
2022-10-26T02:24:21.043Z,20.00
2022-10-26T02:26:52.774Z,36.67
2022-10-26T02:29:26.765Z,3.40
2022-10-26T02:31:57.739Z,4.47
2022-10-26T02:34:31.682Z,5.90
2022-10-26T02:37:03.801Z,2.63
2022-10-26T02:39:36.989Z,3.57
2022-10-26T02:42:10.585Z,2.80
2022-10-26T02:44:45.887Z,4.00
2022-10-26T02:47:16.537Z,3.27
2022-10-26T02:49:50.068Z,3.43
2022-10-26T02:52:26.127Z,2.57
2022-10-26T02:55:03.433Z,1.90
2022-10-26T02:57:39.748Z,5.13
2022-10-26T03:00:12.865Z,2.20
2022-10-26T03:02:47.652Z,2.10
2022-10-26T03:05:26.033Z,3.37
2022-10-26T03:07:56.680Z,2.50
2022-10-26T03:10:27.325Z,2.27
2022-10-26T03:12:57.263Z,4.50
2022-10-26T03:15:27.823Z,8.67
2022-10-26T03:17:57.718Z,2.20
2022-10-26T03:20:30.851Z,4.23
2022-10-26T03:23:00.707Z,5.13
2022-10-26T03:25:30.741Z,1.70
2022-10-26T03:28:01.678Z,4.90
2022-10-26T03:30:34.132Z,5.13
2022-10-26T03:33:04.003Z,1.37
2022-10-26T03:35:37.095Z,2.40
2022-10-26T03:38:06.953Z,3.30
2022-10-26T03:40:37.863Z,4.13
2022-10-26T03:43:07.774Z,7.30
2022-10-26T03:45:38.469Z,3.13
2022-10-26T03:48:08.760Z,2.47
2022-10-26T03:50:42.056Z,13.43
2022-10-26T03:53:11.931Z,5.47
2022-10-26T03:55:42.830Z,3.30
2022-10-26T03:58:12.768Z,5.57
2022-10-26T04:00:43.054Z,4.23
2022-10-26T04:03:12.905Z,4.60
2022-10-26T04:05:45.934Z,4.23
2022-10-26T04:08:15.838Z,3.37
2022-10-26T04:10:49.071Z,3.47
2022-10-26T04:13:18.969Z,4.80
2022-10-26T04:15:49.230Z,3.93
2022-10-26T04:18:19.450Z,2.70
2022-10-26T04:20:52.284Z,3.30
2022-10-26T04:23:22.856Z,4.80
2022-10-26T04:25:52.764Z,7.00
2022-10-26T04:28:22.872Z,5.70
2022-10-26T04:30:53.369Z,3.90
2022-10-26T04:33:23.249Z,8.90
2022-10-26T04:35:56.502Z,5.63
2022-10-26T04:38:26.394Z,9.30
2022-10-26T04:40:57.386Z,6.57
2022-10-26T04:43:27.355Z,3.70
2022-10-26T04:45:59.364Z,2.30
2022-10-26T04:48:29.350Z,3.10
2022-10-26T04:51:05.159Z,3.63
2022-10-26T04:53:35.064Z,2.90
2022-10-26T04:56:06.311Z,3.23
2022-10-26T04:58:36.189Z,1.83
2022-10-26T05:01:06.945Z,4.40
2022-10-26T05:03:37.427Z,2.83
2022-10-26T05:06:10.850Z,3.70
2022-10-26T05:08:40.748Z,6.27
2022-10-26T05:11:11.398Z,3.67
2022-10-26T05:13:41.294Z,3.50
2022-10-26T05:16:11.950Z,2.97
2022-10-26T05:18:41.850Z,6.93
2022-10-26T05:21:19.687Z,1.77
2022-10-26T05:23:55.327Z,4.57
2022-10-26T05:26:27.169Z,4.07
2022-10-26T05:28:57.251Z,4.07
2022-10-26T05:31:27.855Z,3.47
2022-10-26T05:33:58.154Z,3.60
2022-10-26T05:36:30.978Z,4.40
2022-10-26T05:39:01.474Z,2.07
2022-10-26T05:41:31.426Z,4.73
2022-10-26T05:44:01.534Z,2.43
2022-10-26T05:46:31.938Z,2.00
2022-10-26T05:49:02.079Z,3.80
2022-10-26T05:51:37.308Z,1.97
2022-10-26T05:54:11.504Z,4.63
2022-10-26T05:56:45.228Z,2.00
2022-10-26T05:59:17.873Z,2.60
2022-10-26T06:02:00.685Z,2.33
2022-10-26T06:04:38.997Z,3.50
2022-10-26T06:07:17.555Z,3.07
2022-10-26T06:09:49.195Z,7.47
2022-10-26T06:12:20.620Z,4.17
2022-10-26T06:14:51.503Z,6.63
2022-10-26T06:17:33.250Z,3.20
2022-10-26T06:20:17.556Z,1.90
2022-10-26T06:23:01.935Z,5.50
2022-10-26T06:25:45.157Z,3.20
2022-10-26T06:28:24.940Z,2.50
2022-10-26T06:30:55.872Z,1.97
2022-10-26T06:33:30.629Z,2.40
2022-10-26T06:36:10.330Z,2.73
2022-10-26T06:38:46.019Z,6.30
2022-10-26T06:41:19.118Z,2.97
2022-10-26T06:43:49.783Z,3.73
2022-10-26T06:46:32.093Z,1.47
2022-10-26T06:49:09.982Z,6.00
2022-10-26T06:51:50.018Z,5.43
2022-10-26T06:54:27.483Z,3.93
2022-10-26T06:57:03.938Z,3.90
2022-10-26T06:59:40.823Z,3.90
2022-10-26T07:02:12.714Z,2.20
2022-10-26T07:04:47.159Z,1.67
2022-10-26T07:07:20.972Z,1.83
2022-10-26T07:09:53.850Z,8.20
2022-10-26T07:12:25.469Z,2.43
2022-10-26T07:14:58.182Z,2.53
2022-10-26T07:17:30.978Z,2.03
2022-10-26T07:20:01.016Z,3.80
2022-10-26T07:22:38.834Z,3.00
2022-10-26T07:25:13.678Z,2.17
2022-10-26T07:27:43.564Z,1.53
2022-10-26T07:30:19.827Z,2.37
2022-10-26T07:32:52.650Z,2.07
2022-10-26T07:35:23.342Z,6.37
2022-10-26T07:37:53.323Z,2.63
2022-10-26T07:40:27.084Z,2.93
2022-10-26T07:43:00.147Z,1.93
2022-10-26T07:45:31.799Z,2.67
2022-10-26T07:48:07.047Z,3.70
2022-10-26T07:50:38.077Z,2.17
2022-10-26T07:53:08.052Z,3.03
2022-10-26T07:58:11.679Z,3.10
2022-10-26T08:00:43.083Z,2.17
2022-10-26T08:03:13.044Z,4.70
2022-10-26T08:05:43.192Z,2.23
2022-10-26T08:08:13.694Z,2.37
2022-10-26T08:10:49.796Z,4.40
2022-10-26T08:13:19.764Z,2.27
2022-10-26T08:15:50.273Z,5.30
2022-10-26T08:18:20.159Z,4.73
2022-10-26T08:20:50.419Z,1.10
2022-10-26T08:23:20.367Z,1.90
2022-10-26T08:25:53.036Z,1.90
2022-10-26T08:28:22.998Z,1.43
2022-10-26T08:30:53.431Z,2.60
2022-10-26T08:33:23.809Z,2.70
2022-10-26T08:35:59.340Z,2.93
2022-10-26T08:38:29.853Z,3.50
2022-10-26T08:41:09.403Z,2.03
2022-10-26T08:43:43.441Z,3.43
2022-10-26T08:46:19.269Z,3.10
2022-10-26T08:48:52.516Z,2.17
2022-10-26T08:51:26.496Z,1.83
2022-10-26T08:54:01.908Z,2.37
2022-10-26T08:56:44.891Z,3.83
2022-10-26T08:59:25.448Z,1.97
2022-10-26T09:01:56.293Z,6.20
2022-10-26T09:04:30.500Z,1.60
2022-10-26T09:07:11.058Z,1.87
2022-10-26T09:09:49.719Z,3.87
2022-10-26T09:12:31.028Z,4.33
2022-10-26T09:15:14.828Z,2.20
2022-10-26T09:17:56.269Z,2.73
2022-10-26T09:21:06.059Z,4.10
2022-10-26T09:23:55.515Z,5.80
2022-10-26T09:26:34.509Z,9.63
2022-10-26T09:29:13.865Z,4.70
2022-10-26T09:31:46.233Z,8.37
2022-10-26T09:34:24.462Z,2.83
2022-10-26T09:36:59.230Z,3.50
2022-10-26T09:39:39.194Z,1.73
2022-10-26T09:42:19.292Z,3.60
2022-10-26T09:44:57.933Z,1.90
2022-10-26T09:47:37.848Z,1.77
2022-10-26T09:50:19.403Z,1.30
2022-10-26T09:52:49.722Z,2.40
2022-10-26T09:55:21.395Z,5.03
2022-10-26T09:57:56.353Z,1.20
2022-10-26T10:00:31.279Z,3.30
2022-10-26T10:03:01.782Z,1.43
2022-10-26T10:08:26.046Z,2.77
2022-10-26T10:11:08.602Z,1.87
2022-10-26T10:13:41.023Z,1.87
2022-10-26T10:16:16.878Z,2.80
2022-10-26T10:18:56.666Z,6.20
2022-10-26T10:21:40.557Z,4.90
2022-10-26T10:24:26.653Z,3.70
2022-10-26T10:27:02.803Z,2.37
2022-10-26T10:29:35.143Z,3.20
2022-10-26T10:32:17.859Z,1.90
2022-10-26T10:34:47.852Z,3.40
2022-10-26T10:37:29.184Z,2.00
2022-10-26T10:40:01.390Z,3.40
2022-10-26T10:42:35.751Z,4.53
2022-10-26T10:45:08.389Z,6.77
2022-10-26T10:47:43.216Z,5.60
2022-10-26T10:50:22.534Z,2.80
2022-10-26T10:52:52.876Z,4.93
2022-10-26T10:55:24.809Z,3.97
2022-10-26T10:58:18.139Z,2.50
2022-10-26T11:00:51.892Z,2.37
2022-10-26T11:03:52.773Z,4.40
2022-10-26T11:06:28.086Z,2.83
2022-10-26T11:09:02.352Z,2.57
2022-10-26T11:11:41.788Z,2.93
2022-10-26T11:14:19.842Z,2.83
2022-10-26T11:16:54.626Z,4.40
2022-10-26T11:19:31.911Z,1.63
2022-10-26T11:22:02.796Z,2.07
2022-10-26T11:24:38.449Z,1.13
2022-10-26T11:27:18.601Z,2.13
2022-10-26T11:29:57.013Z,4.20
2022-10-26T11:32:31.606Z,11.30
2022-10-26T11:35:13.851Z,4.33
2022-10-26T11:37:52.968Z,4.03
2022-10-26T11:40:31.823Z,1.90
2022-10-26T11:43:13.556Z,1.73
2022-10-26T11:45:48.530Z,2.80
2022-10-26T11:48:23.753Z,2.87
2022-10-26T11:50:59.332Z,3.70
2022-10-26T11:53:34.134Z,3.43
2022-10-26T11:56:06.931Z,1.30
2022-10-26T11:58:37.032Z,4.40
2022-10-26T12:01:13.778Z,2.30
2022-10-26T12:03:49.719Z,7.20
2022-10-26T12:06:28.155Z,1.53
2022-10-26T12:09:05.072Z,2.50
2022-10-26T12:11:45.320Z,2.93
2022-10-26T12:14:24.509Z,2.17
2022-10-26T12:17:04.086Z,4.03
2022-10-26T12:19:42.404Z,4.50
2022-10-26T12:22:19.204Z,1.63
2022-10-26T12:24:50.378Z,2.50
2022-10-26T12:27:35.614Z,3.27
2022-10-26T12:30:27.379Z,1.73
2022-10-26T12:32:58.584Z,2.77
2022-10-26T12:35:40.630Z,2.40
2022-10-26T12:38:50.387Z,2.10
2022-10-26T12:41:27.733Z,3.13
2022-10-26T12:44:27.844Z,1.83
2022-10-26T12:46:58.095Z,4.13
2022-10-26T12:50:00.601Z,4.47
2022-10-26T12:52:47.521Z,6.47
2022-10-26T12:55:45.929Z,3.80
2022-10-26T12:58:46.590Z,5.63
2022-10-26T13:01:46.990Z,2.60
2022-10-26T13:04:37.898Z,4.83
2022-10-26T13:07:21.774Z,5.97
2022-10-26T13:10:04.149Z,4.00
2022-10-26T13:12:49.948Z,6.77
2022-10-26T13:15:29.008Z,3.80
2022-10-26T13:18:06.045Z,7.10
2022-10-26T13:20:38.280Z,3.07
2022-10-26T13:23:22.895Z,5.00
2022-10-26T13:26:07.155Z,4.13
2022-10-26T13:28:47.967Z,4.03
2022-10-26T13:31:51.569Z,5.60
2022-10-26T13:34:25.820Z,2.00
2022-10-26T13:37:04.594Z,3.37
2022-10-26T13:39:38.589Z,2.60
2022-10-26T13:42:10.859Z,5.13
2022-10-26T13:44:46.081Z,8.10
2022-10-26T13:47:25.186Z,7.00
2022-10-26T13:50:03.332Z,3.30
2022-10-26T13:52:38.312Z,3.40
2022-10-26T13:55:12.519Z,3.73
2022-10-26T13:57:47.034Z,6.70
2022-10-26T14:00:22.002Z,3.53
2022-10-26T14:02:53.042Z,3.80
2022-10-26T14:05:26.291Z,5.13
2022-10-26T14:08:00.230Z,4.80
2022-10-26T14:10:32.093Z,2.53
2022-10-26T14:13:03.747Z,4.37
2022-10-26T14:15:35.835Z,5.03
2022-10-26T14:18:07.949Z,4.40
2022-10-26T14:20:40.581Z,7.23
2022-10-26T14:23:28.625Z,3.50
2022-10-26T14:25:59.525Z,4.23
2022-10-26T14:28:31.840Z,5.00
2022-10-26T14:31:18.152Z,4.20
2022-10-26T14:33:50.303Z,3.90
2022-10-26T14:36:26.534Z,3.17
2022-10-26T14:39:01.226Z,7.73
2022-10-26T14:41:32.610Z,3.63
2022-10-26T14:44:03.406Z,3.47
2022-10-26T14:46:38.324Z,4.20
2022-10-26T14:49:08.300Z,3.70
2022-10-26T14:51:41.292Z,2.80
2022-10-26T14:54:23.258Z,2.70
2022-10-26T14:56:54.258Z,3.60
2022-10-26T14:59:28.352Z,4.97
2022-10-26T15:02:00.204Z,4.93
2022-10-26T15:04:37.026Z,4.10
2022-10-26T15:07:23.051Z,3.03
2022-10-26T15:09:54.192Z,3.07
2022-10-26T15:12:31.957Z,4.93
2022-10-26T15:15:12.536Z,5.33
2022-10-26T15:17:45.207Z,3.83
2022-10-26T15:20:20.464Z,4.67
2022-10-26T15:22:58.225Z,6.60
2022-10-26T15:25:31.063Z,4.93
2022-10-26T15:28:13.052Z,7.73
2022-10-26T15:30:42.997Z,4.23
2022-10-26T15:33:24.511Z,3.13
2022-10-26T15:36:06.690Z,9.57
2022-10-26T15:38:39.902Z,12.73
2022-10-26T15:41:18.689Z,12.70
2022-10-26T15:43:52.126Z,7.00
2022-10-26T15:46:23.009Z,4.53
2022-10-26T15:48:58.887Z,6.47
2022-10-26T15:51:30.455Z,3.17
2022-10-26T15:54:05.058Z,5.53
2022-10-26T15:56:35.874Z,4.80
2022-10-26T15:59:07.791Z,6.57
2022-10-26T16:01:38.218Z,3.27
2022-10-26T16:04:08.313Z,6.53
2022-10-26T16:06:39.527Z,7.30
2022-10-26T16:09:15.912Z,5.63
2022-10-26T16:11:46.649Z,9.73
2022-10-26T16:14:16.529Z,6.40
2022-10-26T16:16:46.553Z,7.17
2022-10-26T16:19:30.237Z,5.10
2022-10-26T16:22:02.117Z,6.37
2022-10-26T16:24:35.598Z,4.30
2022-10-26T16:27:05.891Z,6.00
2022-10-26T16:29:37.446Z,8.03
2022-10-26T16:32:08.173Z,6.20
2022-10-26T16:34:38.447Z,11.80
2022-10-26T16:37:08.912Z,6.40
2022-10-26T16:39:41.485Z,4.73
2022-10-26T16:42:11.881Z,5.10
2022-10-26T16:44:41.831Z,8.03
2022-10-26T16:47:12.674Z,4.10
2022-10-26T16:49:43.506Z,10.07
2022-10-26T16:52:14.522Z,7.50
2022-10-26T16:54:47.187Z,7.70
2022-10-26T16:57:18.216Z,4.97
2022-10-26T16:59:48.133Z,7.40
2022-10-26T17:02:19.119Z,5.73
2022-10-26T17:04:49.313Z,5.87
2022-10-26T17:07:19.728Z,3.63
2022-10-26T17:09:53.385Z,4.80
2022-10-26T17:12:23.811Z,6.53
2022-10-26T17:14:53.814Z,4.60
2022-10-26T17:17:24.412Z,5.77
2022-10-26T17:19:54.288Z,4.67
2022-10-26T17:22:24.741Z,6.50
2022-10-26T17:24:57.325Z,5.60
2022-10-26T17:27:28.219Z,4.33
2022-10-26T17:29:58.106Z,5.00
2022-10-26T17:32:28.754Z,8.27
2022-10-26T17:34:58.618Z,8.20
2022-10-26T17:40:01.708Z,3.90
2022-10-26T17:42:31.784Z,8.33
2022-10-26T17:45:01.676Z,9.37
2022-10-26T17:47:31.909Z,5.50
2022-10-26T17:50:03.488Z,5.47
2022-10-26T17:52:33.937Z,4.20
2022-10-26T17:55:06.909Z,7.57
2022-10-26T17:57:37.319Z,4.87
2022-10-26T18:00:08.413Z,4.60
2022-10-26T18:02:44.059Z,4.80
2022-10-26T18:05:14.281Z,6.63
2022-10-26T18:07:44.989Z,6.30
2022-10-26T18:10:37.084Z,4.00
2022-10-26T18:13:07.890Z,4.57
2022-10-26T18:15:38.806Z,10.83
2022-10-26T18:18:08.798Z,6.47
2022-10-26T18:20:38.746Z,6.50
2022-10-26T18:23:09.274Z,8.17
2022-10-26T18:25:41.835Z,5.80
2022-10-26T18:28:12.983Z,14.00
2022-10-26T18:30:42.874Z,8.60
2022-10-26T18:33:13.395Z,4.50
2022-10-26T18:35:43.881Z,5.47
2022-10-26T18:38:14.637Z,5.27
2022-10-26T18:40:50.131Z,5.90
2022-10-26T18:43:21.312Z,13.67
2022-10-26T18:45:51.260Z,5.50
2022-10-26T18:48:22.439Z,6.73
2022-10-26T18:50:52.439Z,10.83
2022-10-26T18:53:23.555Z,4.53
2022-10-26T18:55:56.016Z,9.67
2022-10-26T18:58:27.271Z,7.70
2022-10-26T19:00:57.276Z,6.13
2022-10-26T19:03:27.647Z,7.47
2022-10-26T19:05:57.512Z,5.70
2022-10-26T19:08:28.142Z,7.80
2022-10-26T19:11:05.857Z,4.30
2022-10-26T19:13:36.841Z,5.03
2022-10-26T19:16:16.921Z,5.07
2022-10-26T19:18:56.123Z,6.90
2022-10-26T19:21:28.528Z,7.30
2022-10-26T19:23:59.761Z,4.90
2022-10-26T19:26:39.856Z,6.03
2022-10-26T19:29:15.858Z,8.60
2022-10-26T19:31:47.861Z,6.07
2022-10-26T19:34:19.824Z,5.13
2022-10-26T19:36:53.161Z,5.63
2022-10-26T19:39:24.595Z,6.80
2022-10-26T19:41:58.133Z,8.50
2022-10-26T19:44:29.293Z,5.27
2022-10-26T19:47:00.506Z,7.00
2022-10-26T19:49:30.496Z,8.47
2022-10-26T19:52:03.521Z,4.93
2022-10-26T19:54:36.726Z,7.63
2022-10-26T19:57:10.071Z,6.33
2022-10-26T19:59:39.956Z,6.13
2022-10-26T20:02:11.457Z,6.33
2022-10-26T20:04:41.716Z,6.80
2022-10-26T20:07:14.007Z,6.07
2022-10-26T20:09:44.498Z,11.93
2022-10-26T20:12:19.777Z,6.93
2022-10-26T20:14:49.694Z,7.90
2022-10-26T20:17:23.958Z,5.90
2022-10-26T20:19:57.141Z,7.30
2022-10-26T20:22:28.251Z,5.13
2022-10-26T20:24:58.182Z,12.43
2022-10-26T20:27:35.478Z,4.47
2022-10-26T20:30:07.934Z,5.07
2022-10-26T20:32:38.279Z,7.10
2022-10-26T20:35:09.554Z,5.10
2022-10-26T20:37:41.440Z,8.53
2022-10-26T20:40:14.316Z,6.77
2022-10-26T20:45:38.449Z,9.97
2022-10-26T20:48:09.888Z,6.10
2022-10-26T20:50:40.688Z,5.93
2022-10-26T20:53:15.333Z,7.60
2022-10-26T20:55:49.991Z,8.87
2022-10-26T20:58:37.794Z,7.70
2022-10-26T21:01:12.548Z,6.70
2022-10-26T21:03:42.879Z,9.30
2022-10-26T21:06:15.104Z,6.87
2022-10-26T21:08:46.757Z,5.60
2022-10-26T21:11:17.078Z,5.77
2022-10-26T21:13:51.192Z,6.47
2022-10-26T21:16:24.673Z,8.40
2022-10-26T21:18:54.941Z,6.60
2022-10-26T21:21:25.257Z,9.57
2022-10-26T21:23:55.101Z,6.60
2022-10-26T21:26:25.246Z,4.70
2022-10-26T21:28:57.899Z,4.63
2022-10-26T21:31:27.901Z,4.90
2022-10-26T21:33:58.392Z,15.23
2022-10-26T21:36:30.232Z,5.60
2022-10-26T21:39:00.110Z,9.20
2022-10-26T21:41:30.625Z,5.47
2022-10-26T21:44:22.110Z,8.30
2022-10-26T21:46:56.135Z,8.23
2022-10-26T21:49:26.007Z,8.50
2022-10-26T21:52:19.867Z,7.10
2022-10-26T21:54:49.769Z,4.33
2022-10-26T21:57:23.090Z,7.77
2022-10-26T21:59:56.458Z,5.77
2022-10-26T22:02:35.861Z,7.20
2022-10-26T22:05:17.983Z,4.30
2022-10-26T22:07:49.292Z,3.97
2022-10-26T22:10:19.764Z,5.57
2022-10-26T22:12:50.152Z,6.87
2022-10-26T22:15:22.600Z,7.17
2022-10-26T22:17:53.589Z,9.83
2022-10-26T22:20:23.662Z,5.90
2022-10-26T22:22:54.515Z,37.50
2022-10-26T22:25:25.388Z,14.60
2022-10-26T22:27:56.463Z,134.17
2022-10-26T22:30:29.100Z,38.57
2022-10-26T22:33:03.212Z,44.13
2022-10-26T22:35:33.286Z,112.80
2022-10-26T22:38:03.447Z,61.57
2022-10-26T22:40:33.259Z,74.73
2022-10-26T22:43:03.671Z,57.13
2022-10-26T22:45:36.468Z,111.00
2022-10-26T22:50:40.379Z,90.33
2022-10-26T22:53:10.778Z,51.17
2022-10-26T22:55:43.544Z,243.40
2022-10-26T22:58:14.423Z,81.27
2022-10-26T23:00:50.860Z,187.10
2022-10-26T23:03:21.415Z,32.03
2022-10-26T23:05:51.806Z,138.00
2022-10-26T23:08:22.612Z,168.13
2022-10-26T23:10:54.368Z,57.13
2022-10-26T23:13:25.911Z,147.03
2022-10-26T23:15:59.474Z,118.63
2022-10-26T23:18:33.560Z,50.73
2022-10-26T23:21:05.361Z,247.47
2022-10-26T23:23:35.689Z,179.70
2022-10-26T23:26:07.243Z,113.13
2022-10-26T23:28:38.261Z,99.33
2022-10-26T23:31:16.141Z,310.40
2022-10-26T23:33:47.325Z,155.37
2022-10-26T23:36:17.250Z,144.40
2022-10-26T23:38:47.817Z,140.27
2022-10-26T23:41:18.460Z,439.33
2022-10-26T23:43:49.110Z,93.77
2022-10-26T23:46:21.883Z,146.70
2022-10-26T23:48:52.474Z,244.03
2022-10-26T23:51:22.538Z,191.07
2022-10-26T23:53:53.517Z,138.50
2022-10-26T23:56:23.542Z,170.40
2022-10-26T23:58:53.856Z,182.47
